Time;durP1;ratioP1;P1;durP2;ratioP2;P2;SDS_P1;SDS_P2;PMS_P1;PMS_P2;Temp;Humidity;BMP_temperature;BMP_pressure;BME280_temperature;BME280_humidity;BME280_pressure;Samples;Min_cycle;Max_cycle;Signal;HPM_P1;HPM_P2
2023/09/22 00:00:41;;;;;;;5.32;4.00;;;;;;;19.64;100.00;101426.78;5092529;28;20085;-73
2023/09/22 00:03:08;;;;;;;7.22;3.92;;;;;;;19.26;100.00;101359.56;5093848;28;20047;-74
2023/09/22 00:05:33;;;;;;;5.18;3.97;;;;;;;19.24;100.00;101326.13;5093768;28;20036;-76
2023/09/22 00:07:59;;;;;;;6.63;4.22;;;;;;;19.51;100.00;101365.44;5094076;28;20039;-77
2023/09/22 00:10:24;;;;;;;10.27;4.28;;;;;;;19.84;100.00;101384.63;5094249;28;20028;-78
2023/09/22 00:12:49;;;;;;;7.32;3.70;;;;;;;19.08;100.00;101295.84;5093344;28;20036;-76
2023/09/22 00:15:15;;;;;;;11.80;3.97;;;;;;;19.35;100.00;101333.44;5093347;28;20030;-74
2023/09/22 00:17:41;;;;;;;6.70;4.10;;;;;;;19.25;100.00;101321.81;5074894;28;20123;-75
2023/09/22 00:20:08;;;;;;;4.45;3.60;;;;;;;19.34;100.00;101352.38;5092845;28;20547;-74
2023/09/22 00:22:34;;;;;;;6.53;3.88;;;;;;;19.27;100.00;101309.69;5074531;28;20032;-75
2023/09/22 00:25:00;;;;;;;4.75;4.20;;;;;;;19.12;100.00;101305.16;5092921;28;20509;-75
2023/09/22 00:27:26;;;;;;;7.60;4.32;;;;;;;19.32;100.00;101349.84;5092409;28;20499;-74
2023/09/22 00:29:51;;;;;;;6.88;3.95;;;;;;;18.69;100.00;101241.66;5092205;28;20085;-75
2023/09/22 00:32:16;;;;;;;7.82;4.60;;;;;;;19.63;100.00;101349.44;5092177;28;20119;-75
2023/09/22 00:34:42;;;;;;;9.77;4.53;;;;;;;19.17;100.00;101265.41;5093199;28;20028;-75
2023/09/22 00:37:07;;;;;;;8.90;4.22;;;;;;;19.37;100.00;101347.13;5092721;28;20111;-75
2023/09/22 00:39:33;;;;;;;7.03;4.25;;;;;;;19.46;100.00;101346.72;5092980;28;20165;-75
2023/09/22 00:42:01;;;;;;;7.15;4.18;;;;;;;19.60;100.00;101350.38;5093064;28;20040;-75
2023/09/22 00:44:26;;;;;;;9.82;4.18;;;;;;;19.55;100.00;101352.31;5093475;28;20119;-77
2023/09/22 00:46:52;;;;;;;9.40;4.30;;;;;;;19.26;100.00;101333.78;5092332;28;20108;-76
2023/09/22 00:49:17;;;;;;;6.35;4.00;;;;;;;19.31;100.00;101330.13;5093171;28;20031;-81
2023/09/22 00:51:44;;;;;;;4.97;3.83;;;;;;;19.31;100.00;101282.84;5092043;28;20085;-76
2023/09/22 00:54:10;;;;;;;6.35;4.60;;;;;;;19.49;100.00;101267.44;5092757;28;20506;-76
2023/09/22 00:56:36;;;;;;;6.60;4.25;;;;;;;19.41;100.00;101246.28;5091990;28;20028;-77
2023/09/22 00:59:02;;;;;;;6.05;4.53;;;;;;;19.17;100.00;101182.03;5091857;28;20040;-77
2023/09/22 01:01:27;;;;;;;5.40;4.72;;;;;;;19.36;100.00;101227.59;5092643;28;20048;-77
2023/09/22 01:03:52;;;;;;;5.90;4.90;;;;;;;19.05;100.00;101161.00;5091697;28;20039;-76
2023/09/22 01:06:18;;;;;;;6.13;4.90;;;;;;;19.28;100.00;101172.06;5092177;28;20026;-77
2023/09/22 01:08:44;;;;;;;8.02;4.78;;;;;;;19.21;100.00;101176.69;5074644;28;20024;-73
2023/09/22 01:11:09;;;;;;;6.53;4.45;;;;;;;19.40;100.00;101210.25;5093018;28;20035;-75
2023/09/22 01:13:35;;;;;;;7.85;4.70;;;;;;;18.78;100.00;101174.25;5092359;28;20459;-73
2023/09/22 01:16:01;;;;;;;5.18;4.60;;;;;;;19.01;100.00;101226.50;5092528;28;20085;-74
2023/09/22 01:18:26;;;;;;;6.53;4.40;;;;;;;19.18;100.00;101219.78;5092154;28;20097;-74
2023/09/22 01:20:54;;;;;;;7.10;4.80;;;;;;;19.17;100.00;101249.91;5091692;28;20063;-75
2023/09/22 01:23:20;;;;;;;9.18;4.60;;;;;;;18.81;100.00;101248.88;5091943;28;20024;-74
2023/09/22 01:25:46;;;;;;;5.38;4.43;;;;;;;18.68;100.00;101222.78;5091972;28;20047;-76
2023/09/22 01:28:12;;;;;;;5.60;4.70;;;;;;;18.54;100.00;101217.34;5074250;28;20024;-76
2023/09/22 01:30:41;;;;;;;7.10;5.45;;;;;;;19.05;100.00;101318.28;5073673;28;20024;-75
2023/09/22 01:33:06;;;;;;;7.68;5.05;;;;;;;18.92;100.00;101283.63;5091528;28;20024;-75
2023/09/22 01:35:33;;;;;;;8.68;5.40;;;;;;;19.04;100.00;101314.06;5091849;28;20574;-74
2023/09/22 01:38:15;;;;;;;8.90;5.20;;;;;;;19.01;100.00;101303.84;5074064;28;20036;-75
2023/09/22 01:40:41;;;;;;;9.05;5.10;;;;;;;19.27;100.00;101346.63;5088354;28;20046;-75
2023/09/22 01:43:07;;;;;;;7.50;5.10;;;;;;;19.41;100.00;101351.25;5092167;28;20025;-77
2023/09/22 01:45:32;;;;;;;7.20;5.25;;;;;;;19.43;100.00;101346.84;5091834;28;20081;-77
2023/09/22 01:47:57;;;;;;;5.85;5.13;;;;;;;19.12;100.00;101333.50;5091022;28;20032;-74
2023/09/22 01:50:23;;;;;;;10.07;5.35;;;;;;;18.67;100.00;101295.84;5092079;28;20028;-77
2023/09/22 01:52:48;;;;;;;6.07;5.07;;;;;;;18.72;100.00;101348.00;5092467;28;20028;-76
2023/09/22 01:55:14;;;;;;;6.45;5.05;;;;;;;18.97;100.00;101363.34;5092240;28;20031;-76
2023/09/22 01:57:39;;;;;;;8.30;5.45;;;;;;;19.09;100.00;101372.31;5074059;28;20100;-75
2023/09/22 02:00:06;;;;;;;6.03;5.38;;;;;;;18.84;100.00;101378.47;5092450;28;20059;-74
2023/09/22 02:02:32;;;;;;;7.40;5.30;;;;;;;18.91;100.00;101337.81;5095625;28;20020;-75
2023/09/22 02:04:59;;;;;;;7.43;5.13;;;;;;;18.68;100.00;101289.78;5096548;28;20028;-77
2023/09/22 02:07:24;;;;;;;7.40;5.45;;;;;;;18.65;100.00;101332.84;5095714;28;20036;-76
2023/09/22 02:09:50;;;;;;;7.13;5.07;;;;;;;18.83;100.00;101376.78;5096658;28;20076;-75
2023/09/22 02:12:15;;;;;;;9.07;5.68;;;;;;;18.44;100.00;101338.84;5096003;28;20031;-76
2023/09/22 02:14:40;;;;;;;8.43;5.35;;;;;;;18.81;100.00;101394.06;5095786;28;20036;-76
2023/09/22 02:17:06;;;;;;;9.43;5.38;;;;;;;19.00;100.00;101413.03;5095755;28;20052;-77
2023/09/22 02:19:35;;;;;;;6.38;5.50;;;;;;;19.10;100.00;101417.81;5095931;28;20410;-75
2023/09/22 02:22:01;;;;;;;10.25;5.85;;;;;;;18.64;100.00;101369.84;5077903;28;20032;-77
2023/09/22 02:24:27;;;;;;;6.97;5.70;;;;;;;18.99;100.00;101419.09;5096028;28;20028;-77
2023/09/22 02:26:52;;;;;;;8.65;5.28;;;;;;;18.82;100.00;101400.03;5095891;28;20052;-75
2023/09/22 02:29:17;;;;;;;7.90;6.07;;;;;;;19.14;100.00;101494.16;5077578;28;20024;-76
2023/09/22 02:31:43;;;;;;;7.55;5.68;;;;;;;19.05;100.00;101645.75;5077278;28;20039;-75
2023/09/22 02:34:08;;;;;;;8.85;5.93;;;;;;;18.40;100.00;101813.78;5095961;28;20124;-75
2023/09/22 02:36:34;;;;;;;9.18;5.93;;;;;;;19.23;100.00;101891.03;5094831;28;20067;-74
2023/09/22 02:38:59;;;;;;;8.30;5.97;;;;;;;18.89;100.00;101830.25;5094953;28;20111;-75
2023/09/22 02:41:25;;;;;;;8.50;6.07;;;;;;;18.43;100.00;101822.28;5095300;28;20078;-75
2023/09/22 02:43:50;;;;;;;11.65;6.47;;;;;;;18.94;100.00;101879.91;5077015;28;20032;-69
2023/09/22 02:46:16;;;;;;;12.88;6.55;;;;;;;18.38;100.00;101808.66;5095141;28;20117;-75
2023/09/22 02:48:41;;;;;;;8.00;5.43;;;;;;;18.71;100.00;101846.31;5095308;28;20387;-75
2023/09/22 02:51:08;;;;;;;7.47;6.40;;;;;;;18.64;100.00;101888.59;5095280;28;20145;-74
2023/09/22 02:53:33;;;;;;;13.45;6.40;;;;;;;18.39;100.00;101843.84;5077149;28;20031;-75
2023/09/22 02:56:04;;;;;;;9.82;7.30;;;;;;;17.98;100.00;101806.44;5076734;28;20123;-74
2023/09/22 02:58:30;;;;;;;9.18;6.80;;;;;;;18.16;100.00;101866.84;5094604;28;20032;-75
2023/09/22 03:00:55;;;;;;;8.80;6.60;;;;;;;18.62;100.00;101949.66;5076085;28;20043;-74
2023/09/22 03:03:20;;;;;;;7.38;6.68;;;;;;;18.54;100.00;101951.59;5075737;28;20032;-74
2023/09/22 03:05:46;;;;;;;8.02;6.43;;;;;;;18.71;100.00;101962.28;5094436;28;20028;-75
2023/09/22 03:08:11;;;;;;;9.73;5.70;;;;;;;18.66;100.00;101940.13;5094745;28;20024;-75
2023/09/22 03:10:38;;;;;;;9.60;6.80;;;;;;;18.81;100.00;101988.63;5093886;28;20077;-74
2023/09/22 03:13:03;;;;;;;11.15;6.53;;;;;;;18.50;100.00;101928.56;5093423;28;20030;-75
2023/09/22 03:15:29;;;;;;;8.32;6.35;;;;;;;18.57;100.00;101955.84;5076653;28;20106;-75
2023/09/22 03:17:54;;;;;;;6.85;5.97;;;;;;;18.89;100.00;101990.09;5094674;28;20031;-75
2023/09/22 03:20:20;;;;;;;9.40;6.85;;;;;;;18.42;100.00;101938.22;5094003;28;20421;-74
2023/09/22 03:22:46;;;;;;;12.23;6.93;;;;;;;18.62;100.00;101975.41;5094710;28;20027;-75
2023/09/22 03:25:13;;;;;;;10.18;6.47;;;;;;;18.46;100.00;101958.72;5093242;28;20084;-75
2023/09/22 03:27:38;;;;;;;9.63;6.80;;;;;;;18.26;100.00;101940.38;5093999;28;20084;-74
2023/09/22 03:30:07;;;;;;;8.48;6.55;;;;;;;18.49;100.00;101993.84;5094115;28;20534;-75
2023/09/22 03:32:35;;;;;;;10.63;6.55;;;;;;;18.38;100.00;101967.53;5094138;28;20115;-75
2023/09/22 03:35:02;;;;;;;9.10;6.88;;;;;;;18.12;100.00;101960.53;5094192;28;20039;-75
2023/09/22 03:37:29;;;;;;;10.13;6.47;;;;;;;18.12;100.00;101924.47;5094601;28;20497;-75
2023/09/22 03:39:58;;;;;;;10.30;7.10;;;;;;;17.81;100.00;101921.88;5076228;28;20418;-76
2023/09/22 03:42:25;;;;;;;10.48;6.82;;;;;;;18.44;100.00;102035.19;5093812;28;20148;-74
2023/09/22 03:44:50;;;;;;;9.55;7.05;;;;;;;18.03;100.00;102030.25;5094061;28;20417;-76
2023/09/22 03:47:16;;;;;;;11.38;6.60;;;;;;;18.49;100.00;102068.56;5094599;28;20035;-75
2023/09/22 03:49:41;;;;;;;9.85;6.70;;;;;;;18.26;100.00;102076.03;5094165;28;20035;-76
2023/09/22 03:52:06;;;;;;;10.77;6.70;;;;;;;18.37;100.00;102067.13;5093593;28;20019;-76
2023/09/22 03:54:32;;;;;;;9.60;6.93;;;;;;;18.46;100.00;102102.97;5093562;28;20028;-77
2023/09/22 03:56:57;;;;;;;8.90;6.18;;;;;;;18.13;100.00;102060.03;5092913;28;20024;-76
2023/09/22 03:59:23;;;;;;;8.23;6.93;;;;;;;18.26;100.00;102068.31;5093053;28;20085;-78
2023/09/22 04:01:48;;;;;;;10.18;6.57;;;;;;;18.38;100.00;102116.94;5093757;28;20504;-79
2023/09/22 04:04:14;;;;;;;12.27;6.85;;;;;;;18.38;100.00;102122.09;5093730;28;20032;-76
2023/09/22 04:06:40;;;;;;;16.40;7.00;;;;;;;18.41;100.00;102151.19;5093483;28;20040;-75
2023/09/22 04:09:07;;;;;;;10.10;6.82;;;;;;;18.30;100.00;102093.97;5093814;28;20047;-75
2023/09/22 04:11:34;;;;;;;15.85;8.13;;;;;;;18.17;100.00;102103.72;5075255;28;20056;-75
2023/09/22 04:13:59;;;;;;;10.98;7.07;;;;;;;18.07;100.00;102096.25;5092778;28;20724;-75
2023/09/22 04:16:24;;;;;;;10.02;6.70;;;;;;;17.98;100.00;102114.50;5093535;28;20024;-78
2023/09/22 04:18:54;;;;;;;10.70;6.30;;;;;;;18.23;100.00;102155.94;5093933;28;20093;-80
2023/09/22 04:21:22;;;;;;;11.13;6.55;;;;;;;18.97;100.00;102219.34;5075483;28;20039;-77
2023/09/22 04:23:57;;;;;;;10.90;7.40;;;;;;;18.84;100.00;102215.38;5093362;28;20044;-75
2023/09/22 04:26:30;;;;;;;10.70;7.55;;;;;;;18.52;100.00;102169.00;5074844;28;20048;-76
2023/09/22 04:28:57;;;;;;;9.27;7.00;;;;;;;18.73;100.00;102177.00;5093208;28;20028;-75
2023/09/22 04:31:26;;;;;;;11.75;6.93;;;;;;;19.04;100.00;102175.28;5093264;28;20043;-76
2023/09/22 04:33:52;;;;;;;10.48;7.40;;;;;;;19.34;100.00;102220.06;5093081;28;20032;-75
2023/09/22 04:36:21;;;;;;;10.50;7.50;;;;;;;18.82;100.00;102160.44;5092755;28;20039;-75
2023/09/22 04:38:48;;;;;;;9.43;6.68;;;;;;;18.47;100.00;102137.34;5092640;28;20028;-74
2023/09/22 04:41:14;;;;;;;8.40;7.07;;;;;;;18.90;100.00;102158.50;5092420;28;20086;-74
2023/09/22 04:43:39;;;;;;;12.10;7.53;;;;;;;19.08;100.00;102185.50;5092309;28;20494;-74
2023/09/22 04:46:05;;;;;;;9.13;7.55;;;;;;;18.57;100.00;102126.75;5074206;28;20028;-74
2023/09/22 04:48:30;;;;;;;13.45;7.63;;;;;;;18.94;100.00;102163.53;5073808;28;20482;-74
2023/09/22 04:50:56;;;;;;;13.75;9.00;;;;;;;18.59;100.00;102127.56;5092559;28;20028;-74
2023/09/22 04:53:21;;;;;;;14.05;9.60;;;;;;;18.64;100.00;102120.53;5092385;28;20538;-74
2023/09/22 04:55:48;;;;;;;13.68;8.93;;;;;;;18.73;100.00;102128.03;5090890;28;20097;-74
2023/09/22 04:58:14;;;;;;;29.40;16.42;;;;;;;18.71;100.00;102128.97;5074390;28;20581;-74
2023/09/22 05:00:40;;;;;;;18.85;11.00;;;;;;;18.74;100.00;102140.03;5092274;28;20051;-75
2023/09/22 05:03:07;;;;;;;19.25;11.90;;;;;;;18.47;100.00;102098.69;5092275;28;20027;-72
2023/09/22 05:05:33;;;;;;;13.93;8.88;;;;;;;18.24;100.00;102081.25;5091821;28;20123;-72
2023/09/22 05:07:59;;;;;;;11.52;8.65;;;;;;;18.64;100.00;102117.13;5091714;28;20506;-70
2023/09/22 05:10:24;;;;;;;12.02;8.10;;;;;;;18.85;100.00;102106.22;5091896;28;20067;-73
2023/09/22 05:12:51;;;;;;;14.15;9.63;;;;;;;19.16;100.00;102122.50;5091768;28;20063;-74
2023/09/22 05:15:17;;;;;;;15.30;9.25;;;;;;;19.14;100.00;102110.53;5091669;28;20050;-73
2023/09/22 05:17:43;;;;;;;19.98;12.20;;;;;;;19.15;100.00;102089.03;5073248;28;20043;-73
2023/09/22 05:20:12;;;;;;;11.25;7.63;;;;;;;19.68;100.00;102139.91;5091575;28;20422;-74
2023/09/22 05:22:39;;;;;;;11.93;6.90;;;;;;;19.67;100.00;102109.81;5091227;28;20426;-73
2023/09/22 05:25:05;;;;;;;13.20;7.35;;;;;;;19.42;100.00;102089.09;5091322;28;20032;-73
2023/09/22 05:27:30;;;;;;;13.60;7.30;;;;;;;19.84;100.00;102102.38;5090845;28;20052;-72
2023/09/22 05:29:56;;;;;;;8.40;6.95;;;;;;;20.37;100.00;102096.31;5090931;28;20152;-72
2023/09/22 05:32:21;;;;;;;9.73;7.28;;;;;;;20.46;100.00;102093.41;5090804;28;20036;-73
2023/09/22 05:34:47;;;;;;;13.73;7.60;;;;;;;20.95;100.00;102076.13;5090931;28;20028;-72
2023/09/22 05:37:12;;;;;;;12.50;7.18;;;;;;;20.66;100.00;102021.16;5071932;28;20418;-71
2023/09/22 05:39:38;;;;;;;12.60;7.40;;;;;;;21.15;100.00;102058.16;5091222;28;20421;-72
2023/09/22 05:42:04;;;;;;;11.05;7.75;;;;;;;20.85;100.00;102036.00;5073203;28;20558;-69
2023/09/22 05:44:30;;;;;;;15.25;8.80;;;;;;;21.06;100.00;102042.97;5090935;28;20085;-72
2023/09/22 05:46:55;;;;;;;16.75;9.90;;;;;;;21.75;100.00;102067.84;5072646;28;20162;-72
2023/09/22 05:49:21;;;;;;;10.65;7.10;;;;;;;21.80;100.00;102048.63;5090691;28;20162;-72
2023/09/22 05:51:48;;;;;;;8.57;6.43;;;;;;;21.79;100.00;101989.09;5090410;28;20027;-71
2023/09/22 05:54:14;;;;;;;11.20;6.53;;;;;;;21.37;100.00;101899.34;5072649;28;20024;-72
2023/09/22 05:56:40;;;;;;;11.23;6.50;;;;;;;22.22;100.00;101932.75;5090817;28;20032;-72
2023/09/22 05:59:06;;;;;;;10.32;6.20;;;;;;;22.30;100.00;101896.97;5090858;28;20066;-70
2023/09/22 06:01:35;;;;;;;10.85;5.60;;;;;;;22.30;100.00;101886.59;5090834;28;20113;-72
2023/09/22 06:04:02;;;;;;;10.02;5.80;;;;;;;22.19;100.00;101943.28;5090880;28;20059;-71
2023/09/22 06:06:28;;;;;;;11.50;5.70;;;;;;;22.36;100.00;102131.81;5090508;28;20024;-70
2023/09/22 06:08:54;;;;;;;10.88;6.05;;;;;;;22.56;100.00;102315.91;5090686;28;20058;-72
2023/09/22 06:11:20;;;;;;;9.30;5.30;;;;;;;22.31;100.00;102619.44;5090541;28;20080;-73
2023/09/22 06:13:46;;;;;;;9.40;5.82;;;;;;;22.02;100.00;103182.00;5090399;28;20032;-73
2023/09/22 06:16:12;;;;;;;8.23;5.65;;;;;;;22.74;100.00;103726.06;5072314;28;20051;-73
2023/09/22 06:18:37;;;;;;;10.25;5.93;;;;;;;23.06;100.00;103863.94;5090618;28;20028;-73
2023/09/22 06:21:03;;;;;;;8.25;5.47;;;;;;;23.23;100.00;103925.06;5090664;28;20032;-75
2023/09/22 06:23:29;;;;;;;6.25;4.95;;;;;;;23.46;100.00;104004.41;5090938;28;20483;-73
2023/09/22 06:26:03;;;;;;;8.35;5.43;;;;;;;23.34;100.00;104031.47;5090203;28;20040;-73
2023/09/22 06:28:32;;;;;;;8.95;4.97;;;;;;;23.37;100.00;104025.38;5090844;28;20486;-73
2023/09/22 06:31:02;;;;;;;7.40;4.63;;;;;;;23.65;100.00;103996.25;5090865;28;20027;-73
2023/09/22 06:33:28;;;;;;;5.50;4.18;;;;;;;23.99;100.00;104134.34;5089991;28;20028;-72
2023/09/22 06:36:05;;;;;;;7.18;4.25;;;;;;;23.94;100.00;104376.34;5090294;28;20494;-73
2023/09/22 06:38:33;;;;;;;6.40;4.15;;;;;;;23.97;100.00;104341.59;5090353;28;20024;-73
2023/09/22 06:41:00;;;;;;;10.57;4.47;;;;;;;24.60;100.00;104397.09;5090527;28;20036;-74
2023/09/22 06:43:26;;;;;;;7.28;3.95;;;;;;;23.94;100.00;104287.03;5090441;28;20035;-73
2023/09/22 06:45:52;;;;;;;5.00;4.07;;;;;;;24.43;100.00;105253.00;5090151;28;20028;-73
2023/09/22 06:48:22;;;;;;;5.88;4.40;;;;;;;24.45;100.00;105170.53;5091132;28;20198;-74
2023/09/22 06:50:50;;;;;;;14.27;6.55;;;;;;;24.45;100.00;105038.63;5094189;28;20038;-74
2023/09/22 06:53:16;;;;;;;10.77;6.65;;;;;;;25.21;100.00;104807.03;5093896;28;20038;-74
2023/09/22 06:55:41;;;;;;;10.00;7.47;;;;;;;25.26;100.00;104719.19;5093563;28;20418;-74
2023/09/22 06:58:07;;;;;;;11.93;7.80;;;;;;;24.69;100.00;104501.09;5094247;28;20115;-73
2023/09/22 07:00:32;;;;;;;9.30;8.10;;;;;;;24.76;100.00;104427.25;5093777;28;20471;-73
2023/09/22 07:02:58;;;;;;;9.80;7.57;;;;;;;25.06;100.00;104272.13;5093858;28;20078;-73
2023/09/22 07:05:24;;;;;;;11.95;7.07;;;;;;;23.81;100.00;104113.88;5093995;28;20024;-74
2023/09/22 07:07:50;;;;;;;13.15;7.60;;;;;;;24.99;100.00;104176.72;5093793;28;20437;-75
2023/09/22 07:10:16;;;;;;;8.48;6.60;;;;;;;25.10;100.00;103993.22;5075858;28;20586;-76
2023/09/22 07:12:41;;;;;;;8.50;6.20;;;;;;;25.42;100.00;103784.75;5093702;28;20490;-75
2023/09/22 07:15:08;;;;;;;7.38;5.40;;;;;;;24.82;100.00;103508.59;5093502;28;20028;-73
2023/09/22 07:17:33;;;;;;;9.70;5.90;;;;;;;24.32;100.00;103160.59;5093768;28;21081;-75
2023/09/22 07:20:08;;;;;;;8.85;5.82;;;;;;;25.74;100.00;103251.75;5093811;28;20089;-74
2023/09/22 07:22:34;;;;;;;25.75;6.60;;;;;;;25.75;100.00;103082.19;5093623;28;20039;-73
2023/09/22 07:25:01;;;;;;;8.50;5.40;;;;;;;26.02;100.00;103038.44;5093179;28;20028;-74
2023/09/22 07:27:27;;;;;;;9.77;5.82;;;;;;;25.72;100.00;102566.06;5093167;28;20063;-74
2023/09/22 07:29:52;;;;;;;6.90;5.70;;;;;;;26.17;100.00;102500.31;5093103;28;20028;-75
2023/09/22 07:32:19;;;;;;;10.32;6.10;;;;;;;25.52;100.00;102428.06;5093207;28;20020;-73
2023/09/22 07:34:45;;;;;;;11.18;6.30;;;;;;;25.97;100.00;102392.72;5093376;28;20028;-74
2023/09/22 07:37:11;;;;;;;11.88;5.82;;;;;;;26.20;100.00;102394.94;5093502;28;20479;-74
2023/09/22 07:39:38;;;;;;;9.73;6.18;;;;;;;26.01;100.00;102301.16;5093472;28;20040;-74
2023/09/22 07:42:04;;;;;;;10.13;6.75;;;;;;;26.94;100.00;102288.91;5092672;28;20134;-74
2023/09/22 07:44:30;;;;;;;12.60;6.53;;;;;;;26.68;100.00;102192.94;5092899;28;20486;-75
2023/09/22 07:46:58;;;;;;;10.32;7.00;;;;;;;26.14;100.00;102140.47;5093578;28;20114;-75
2023/09/22 07:49:24;;;;;;;10.82;7.15;;;;;;;25.52;100.00;102091.03;5093698;28;20039;-75
2023/09/22 07:51:50;;;;;;;13.00;6.93;;;;;;;26.54;100.00;102155.44;5092800;28;20028;-74
2023/09/22 07:54:16;;;;;;;9.88;5.60;;;;;;;25.44;100.00;102039.34;5092880;28;20032;-75
2023/09/22 07:56:41;;;;;;;10.32;5.82;;;;;;;26.27;100.00;102091.00;5092782;28;20024;-74
2023/09/22 07:59:07;;;;;;;10.85;6.20;;;;;;;26.79;100.00;102060.84;5091319;28;20024;-73
2023/09/22 08:01:33;;;;;;;10.88;6.05;;;;;;;25.58;100.00;101973.41;5092504;28;20482;-75
2023/09/22 08:03:58;;;;;;;9.68;6.63;;;;;;;26.12;100.00;102026.69;5092716;28;20044;-74
2023/09/22 08:06:24;;;;;;;10.13;5.95;;;;;;;25.03;100.00;101933.19;5092931;28;20035;-74
2023/09/22 08:08:50;;;;;;;10.93;6.05;;;;;;;26.42;100.00;101981.31;5092553;28;20105;-74
2023/09/22 08:11:18;;;;;;;8.70;6.10;;;;;;;26.56;100.00;101994.34;5092562;28;20016;-74
2023/09/22 08:13:45;;;;;;;11.40;6.43;;;;;;;26.75;100.00;101960.13;5092559;28;20119;-75
2023/09/22 08:16:13;;;;;;;8.93;6.35;;;;;;;27.28;100.00;101952.25;5093077;28;20055;-76
2023/09/22 08:18:40;;;;;;;13.50;7.05;;;;;;;26.13;100.00;101788.38;5092526;28;20035;-75
2023/09/22 08:21:06;;;;;;;13.95;7.00;;;;;;;27.04;100.00;101809.38;5092551;28;20119;-73
2023/09/22 08:23:31;;;;;;;10.20;6.60;;;;;;;27.31;100.00;101797.88;5092223;28;20024;-73
2023/09/22 08:25:57;;;;;;;15.07;7.00;;;;;;;26.50;100.00;101754.59;5092108;28;20031;-74
2023/09/22 08:28:23;;;;;;;10.77;5.85;;;;;;;27.24;100.00;101795.78;5092532;28;20030;-72
2023/09/22 08:30:49;;;;;;;11.00;6.88;;;;;;;26.76;100.00;101763.34;5074363;28;20028;-74
2023/09/22 08:33:15;;;;;;;12.43;7.57;;;;;;;27.09;100.00;101771.53;5074289;28;20035;-76
2023/09/22 08:35:41;;;;;;;11.20;6.80;;;;;;;27.45;100.00;101748.09;5092825;28;20020;-76
2023/09/22 08:38:06;;;;;;;11.25;6.97;;;;;;;27.44;100.00;101735.16;5092937;28;20512;-75
2023/09/22 08:40:32;;;;;;;10.15;7.03;;;;;;;27.44;100.00;101685.50;5093012;28;20028;-75
2023/09/22 08:42:58;;;;;;;15.38;7.15;;;;;;;27.00;100.00;101640.75;5092216;28;20059;-74
2023/09/22 08:45:23;;;;;;;13.25;6.85;;;;;;;27.98;100.00;101623.16;5073429;28;20410;-74
2023/09/22 08:47:50;;;;;;;12.63;7.80;;;;;;;27.80;100.00;101621.88;5091988;28;20024;-75
2023/09/22 08:50:18;;;;;;;14.18;8.32;;;;;;;27.81;100.00;101572.06;5092646;28;20083;-75
2023/09/22 08:52:48;;;;;;;13.48;7.85;;;;;;;27.62;100.00;101631.91;5073963;28;20031;-75
2023/09/22 08:55:14;;;;;;;13.00;7.35;;;;;;;28.77;100.00;101626.66;5092095;28;20076;-73
2023/09/22 08:57:47;;;;;;;13.27;7.55;;;;;;;28.82;100.00;101621.88;5091605;28;20051;-74
2023/09/22 09:00:18;;;;;;;17.55;8.02;;;;;;;28.97;100.00;101536.03;5091823;28;20032;-75
2023/09/22 09:02:45;;;;;;;13.02;8.10;;;;;;;28.85;100.00;101511.66;5091877;28;20092;-75
2023/09/22 09:05:39;;;;;;;14.88;9.15;;;;;;;28.09;100.00;101518.53;5092425;28;20490;-76
2023/09/22 09:08:19;;;;;;;18.02;8.02;;;;;;;28.23;100.00;101495.59;5090366;28;20036;-76
2023/09/22 09:10:46;;;;;;;12.20;7.95;;;;;;;28.67;100.00;101478.22;5091555;28;20060;-74
2023/09/22 09:13:27;;;;;;;10.10;7.00;;;;;;;29.37;100.00;101444.53;5074019;28;20077;-76
2023/09/22 09:15:54;;;;;;;10.23;7.25;;;;;;;29.47;100.00;101341.38;5092093;28;20027;-76
2023/09/22 09:18:22;;;;;;;13.93;7.47;;;;;;;29.01;100.00;101026.53;5091340;28;20034;-70
2023/09/22 09:21:04;;;;;;;10.10;7.07;;;;;;;29.50;100.00;100988.94;5074110;28;20032;-75
2023/09/22 09:23:30;;;;;;;13.85;6.80;;;;;;;29.49;100.00;100906.00;5092256;28;20039;-75
2023/09/22 09:25:56;;;;;;;12.30;7.13;;;;;;;29.45;100.00;100863.53;5091642;28;20024;-74
2023/09/22 09:28:23;;;;;;;13.57;6.85;;;;;;;29.43;100.00;100771.09;5092217;28;20031;-75
2023/09/22 09:30:54;;;;;;;12.50;6.65;;;;;;;29.54;100.00;100751.72;5092052;28;20031;-75
2023/09/22 09:33:24;;;;;;;7.88;5.43;;;;;;;29.80;100.00;100701.09;5091377;28;20077;-74
2023/09/22 09:35:50;;;;;;;8.68;5.88;;;;;;;30.17;100.00;100721.94;5091356;28;20061;-75
2023/09/22 09:38:17;;;;;;;9.38;6.20;;;;;;;29.07;100.00;100685.41;5091235;28;20506;-74
2023/09/22 09:40:43;;;;;;;11.50;5.43;;;;;;;28.57;100.00;100645.59;5091076;28;20025;-74
2023/09/22 09:43:13;;;;;;;8.93;5.55;;;;;;;29.49;100.00;100638.59;5090892;28;20509;-75
2023/09/22 09:45:59;;;;;;;9.00;5.85;;;;;;;30.09;100.00;100589.84;5091083;28;20036;-74
2023/09/22 09:48:25;;;;;;;8.07;5.68;;;;;;;29.81;100.00;100623.22;5088221;28;20028;-74
2023/09/22 09:50:53;;;;;;;6.47;5.07;;;;;;;30.62;100.00;100591.34;5091814;28;20046;-75
2023/09/22 09:53:26;;;;;;;11.93;5.93;;;;;;;29.64;100.00;100521.72;5091378;28;20032;-75
2023/09/22 09:55:58;;;;;;;7.57;5.15;;;;;;;30.26;100.00;100500.56;5073739;28;20032;-70
2023/09/22 09:58:26;;;;;;;10.10;5.43;;;;;;;29.94;100.00;100550.19;5091647;28;20028;-75
2023/09/22 10:00:52;;;;;;;17.42;5.57;;;;;;;30.12;100.00;100551.00;5091401;28;20497;-75
2023/09/22 10:03:20;;;;;;;10.30;5.20;;;;;;;30.50;100.00;100523.50;5090136;28;20035;-75
2023/09/22 10:05:49;;;;;;;8.93;5.13;;;;;;;30.88;100.00;100553.75;5091370;28;20418;-76
2023/09/22 10:08:14;;;;;;;7.93;5.30;;;;;;;30.77;100.00;100570.56;5090903;28;20115;-74
2023/09/22 10:10:41;;;;;;;9.20;4.70;;;;;;;30.94;100.00;100645.88;5072353;28;20111;-74
2023/09/22 10:13:07;;;;;;;7.80;4.97;;;;;;;30.73;100.00;100617.34;5091137;28;20039;-75
2023/09/22 10:16:00;;;;;;;7.00;4.38;;;;;;;30.53;100.00;100673.69;5089778;28;20028;-75
2023/09/22 10:18:47;;;;;;;7.95;4.57;;;;;;;30.70;100.00;100657.06;5072829;28;20044;-74
2023/09/22 10:21:28;;;;;;;9.02;4.63;;;;;;;30.60;100.00;100669.47;5090931;28;20028;-74
2023/09/22 10:24:23;;;;;;;7.75;4.70;;;;;;;30.43;100.00;100654.59;5094606;28;20111;-75
2023/09/22 10:27:06;;;;;;;8.10;4.50;;;;;;;31.43;100.00;100662.72;5094577;28;20229;-74
2023/09/22 10:29:37;;;;;;;11.50;5.22;;;;;;;31.10;100.00;100679.31;5094772;28;20023;-75
2023/09/22 10:32:17;;;;;;;;;;;;;;;31.12;100.00;100693.13;5094974;28;20035;-72
2023/09/22 10:34:53;;;;;;;6.97;3.73;;;;;;;30.82;100.00;100701.47;5094620;28;19912;-74
2023/09/22 10:37:30;;;;;;;7.75;4.03;;;;;;;31.27;100.00;100694.19;5094839;28;20059;-75
2023/09/22 10:40:15;;;;;;;8.48;4.18;;;;;;;31.17;100.00;100678.53;5094883;28;20478;-72
2023/09/22 10:42:43;;;;;;;7.68;4.10;;;;;;;31.37;100.00;100734.31;5094806;28;20032;-76
2023/09/22 10:45:09;;;;;;;14.00;4.43;;;;;;;31.90;100.00;100687.47;5094538;28;20068;-75
2023/09/22 10:47:44;;;;;;;8.10;4.28;;;;;;;31.55;100.00;100735.09;5076398;28;20148;-75
2023/09/22 10:50:12;;;;;;;10.93;4.00;;;;;;;31.98;100.00;100718.28;5094029;28;20034;-75
2023/09/22 10:52:39;;;;;;;12.10;4.38;;;;;;;31.84;100.00;100664.44;5094142;28;20543;-75
2023/09/22 10:55:05;;;;;;;7.10;4.10;;;;;;;32.09;100.00;100692.47;5094198;28;20035;-75
2023/09/22 10:57:30;;;;;;;7.28;4.35;;;;;;;31.95;100.00;100687.84;5076053;28;20039;-74
2023/09/22 10:59:56;;;;;;;10.80;4.07;;;;;;;31.46;100.00;100586.94;5094165;28;20032;-75
2023/09/22 11:02:26;;;;;;;8.75;3.88;;;;;;;32.23;100.00;100657.56;5093664;28;20035;-73
2023/09/22 11:04:52;;;;;;;7.90;4.47;;;;;;;32.19;100.00;100610.69;5094113;28;20032;-74
2023/09/22 11:07:34;;;;;;;8.65;3.53;;;;;;;32.21;100.00;100632.38;5094430;28;20032;-76
2023/09/22 11:10:00;;;;;;;9.38;4.47;;;;;;;31.96;100.00;100643.91;5094429;28;20056;-76
2023/09/22 11:12:29;;;;;;;10.02;3.80;;;;;;;31.76;100.00;100589.94;5094570;28;20074;-76
2023/09/22 11:14:55;;;;;;;10.43;4.53;;;;;;;31.78;100.00;100591.41;5094541;28;20036;-75